Time;durP1;ratioP1;P1;durP2;ratioP2;P2;SDS_P1;SDS_P2;PMS_P1;PMS_P2;Temp;Humidity;BMP_temperature;BMP_pressure;BME280_temperature;BME280_humidity;BME280_pressure;Samples;Min_cycle;Max_cycle;Signal;HPM_P1;HPM_P2
2021/12/08 00:01:19;;;;;;;7.70;3.53;;;;;;;-0.23;84.14;94006.72;5004045;28;20210;-88
2021/12/08 00:03:47;;;;;;;4.13;2.80;;;;;;;-0.33;84.46;94004.06;5004942;28;20198;-88
2021/12/08 00:06:15;;;;;;;3.67;2.73;;;;;;;-0.30;84.81;93996.16;5005196;28;20174;-87
2021/12/08 00:09:00;;;;;;;5.47;3.07;;;;;;;-0.33;84.73;93980.31;5007820;28;20195;-88
2021/12/08 00:14:15;;;;;;;4.63;2.93;;;;;;;-0.23;84.74;93981.19;5027343;28;20228;-88
2021/12/08 00:16:47;;;;;;;5.77;2.83;;;;;;;-0.23;84.91;93980.38;5030070;28;20185;-87
2021/12/08 00:19:15;;;;;;;4.57;2.83;;;;;;;-0.26;84.34;93965.34;5012623;28;20453;-89
2021/12/08 00:21:57;;;;;;;5.57;3.17;;;;;;;-0.26;84.78;93968.69;5012688;28;20187;-87
2021/12/08 00:24:25;;;;;;;4.13;2.57;;;;;;;-0.29;85.07;93969.72;5030159;28;20206;-88
2021/12/08 00:26:56;;;;;;;3.10;2.43;;;;;;;-0.24;84.41;93966.81;5013284;28;20646;-88
2021/12/08 00:29:23;;;;;;;3.73;2.43;;;;;;;-0.32;85.33;93967.44;5013945;28;20182;-88
2021/12/08 00:31:50;;;;;;;2.70;2.07;;;;;;;-0.29;85.12;93962.06;5011821;28;20258;-88
2021/12/08 00:34:18;;;;;;;3.83;2.30;;;;;;;-0.33;86.12;93965.00;5008676;28;20214;-88
2021/12/08 00:36:50;;;;;;;4.97;2.80;;;;;;;-0.30;85.82;93954.56;5009379;28;20654;-87
2021/12/08 00:39:18;;;;;;;3.07;2.17;;;;;;;-0.42;86.93;93961.44;5011723;28;20665;-88
2021/12/08 00:41:44;;;;;;;3.13;2.60;;;;;;;-0.38;87.64;93960.25;5008243;28;20197;-88
2021/12/08 00:44:09;;;;;;;3.43;2.53;;;;;;;-0.43;89.32;93964.91;5009397;28;20575;-87
2021/12/08 00:46:36;;;;;;;3.33;2.30;;;;;;;-0.38;90.17;93972.19;5036754;28;20177;-88
2021/12/08 00:49:05;;;;;;;3.60;2.20;;;;;;;-0.52;91.40;93968.19;5016295;28;20222;-88
2021/12/08 00:51:31;;;;;;;3.60;2.80;;;;;;;-0.45;91.88;93978.69;5014846;28;20201;-87
2021/12/08 00:53:56;;;;;;;2.83;2.33;;;;;;;-0.44;92.29;93978.59;5019449;28;20203;-88
2021/12/08 00:56:22;;;;;;;3.97;2.23;;;;;;;-0.44;92.87;93970.13;5002636;28;20185;-87
2021/12/08 00:58:50;;;;;;;6.10;2.63;;;;;;;-0.45;93.88;93966.75;5001327;28;20189;-87
2021/12/08 01:01:16;;;;;;;3.77;2.70;;;;;;;-0.48;94.99;93967.00;5001587;28;20206;-87
2021/12/08 01:03:41;;;;;;;3.70;2.50;;;;;;;-0.41;95.08;93957.94;5002079;28;20234;-86
2021/12/08 01:06:07;;;;;;;2.90;2.60;;;;;;;-0.51;96.08;93954.50;5002384;28;20620;-88
2021/12/08 01:08:33;;;;;;;5.23;2.40;;;;;;;-0.49;96.33;93955.19;5002334;28;20175;-87
2021/12/08 01:11:04;;;;;;;4.43;2.70;;;;;;;-0.47;96.56;93952.50;5001712;28;20174;-88
2021/12/08 01:13:29;;;;;;;2.27;2.03;;;;;;;-0.50;96.64;93947.66;5000731;28;20207;-87
2021/12/08 01:15:58;;;;;;;4.83;3.07;;;;;;;-0.50;96.94;93951.03;5000919;28;20677;-87
2021/12/08 01:18:29;;;;;;;3.10;2.33;;;;;;;-0.48;97.42;93940.69;5000655;28;20254;-86
2021/12/08 01:20:57;;;;;;;3.57;2.30;;;;;;;-0.44;96.77;93942.91;5002076;28;20209;-87
2021/12/08 01:23:23;;;;;;;3.17;2.33;;;;;;;-0.53;96.81;93951.28;5016304;28;20201;-87
2021/12/08 01:25:49;;;;;;;6.43;2.60;;;;;;;-0.46;97.28;93954.94;4987698;28;20197;-87
2021/12/08 01:28:20;;;;;;;5.00;2.57;;;;;;;-0.47;97.27;93948.22;4998766;28;20519;-86
2021/12/08 01:30:45;;;;;;;3.13;2.70;;;;;;;-0.51;97.65;93946.84;4990694;28;20642;-86
2021/12/08 01:33:15;;;;;;;2.40;2.10;;;;;;;-0.51;97.90;93944.31;4989001;28;20201;-87
2021/12/08 01:35:40;;;;;;;3.23;2.30;;;;;;;-0.53;97.87;93946.16;4998792;28;20197;-86
2021/12/08 01:38:06;;;;;;;3.80;2.10;;;;;;;-0.47;97.56;93948.22;5000067;28;20196;-87
2021/12/08 01:40:31;;;;;;;2.50;2.30;;;;;;;-0.47;97.57;93948.22;4986939;28;20568;-87
2021/12/08 01:43:03;;;;;;;3.80;2.40;;;;;;;-0.45;98.06;93945.53;5012983;28;20202;-88
2021/12/08 01:48:22;;;;;;;2.93;2.33;;;;;;;-0.51;98.09;93948.59;5020100;28;20274;-86
2021/12/08 01:50:51;;;;;;;2.93;2.30;;;;;;;-0.45;97.80;93954.00;5001303;28;20193;-86
2021/12/08 01:53:16;;;;;;;3.83;2.60;;;;;;;-0.46;97.69;93960.03;5016920;28;20240;-86
2021/12/08 01:55:45;;;;;;;5.30;2.70;;;;;;;-0.49;97.96;93962.84;5001131;28;20189;-86
2021/12/08 01:58:15;;;;;;;4.50;2.50;;;;;;;-0.49;97.81;93969.69;4997573;28;20208;-85
2021/12/08 02:00:54;;;;;;;2.40;2.20;;;;;;;-0.41;98.10;93963.06;4997841;28;20678;-87
2021/12/08 02:03:25;;;;;;;5.30;2.43;;;;;;;-0.38;97.94;93973.00;4999767;28;20198;-88
2021/12/08 02:05:54;;;;;;;3.23;2.30;;;;;;;-0.41;97.96;93973.25;5000431;28;20190;-86
2021/12/08 02:08:21;;;;;;;3.07;2.50;;;;;;;-0.40;98.21;93976.59;5000706;28;20255;-86
2021/12/08 02:10:52;;;;;;;4.80;2.83;;;;;;;-0.41;98.73;93977.53;4999173;28;20182;-87
2021/12/08 02:13:19;;;;;;;3.23;2.40;;;;;;;-0.43;98.54;93979.41;4999726;28;20236;-87
2021/12/08 02:15:58;;;;;;;3.40;2.77;;;;;;;-0.38;98.26;93975.56;4999870;28;20239;-85
2021/12/08 02:18:29;;;;;;;5.50;3.10;;;;;;;-0.33;98.63;93980.31;4999949;28;20214;-88
2021/12/08 02:21:27;;;;;;;4.40;2.70;;;;;;;-0.29;98.20;93967.19;4995111;28;20250;-86
2021/12/08 02:23:55;;;;;;;3.87;3.30;;;;;;;-0.23;97.91;93959.97;5032745;28;20210;-87
2021/12/08 02:26:26;;;;;;;7.27;4.00;;;;;;;-0.37;98.86;93954.22;4992045;28;20187;-87
2021/12/08 02:28:54;;;;;;;5.70;4.07;;;;;;;-0.28;98.93;93942.47;5000197;28;20190;-86
2021/12/08 02:31:30;;;;;;;7.43;4.00;;;;;;;-0.32;98.97;93947.03;4996340;28;20198;-87
2021/12/08 02:48:02;;;;;;;6.33;3.87;;;;;;;-0.20;98.27;93904.41;5022532;28;20196;-86
2021/12/08 02:50:39;;;;;;;8.93;4.60;;;;;;;-0.15;98.56;93902.31;5018265;28;20182;-86
2021/12/08 02:53:10;;;;;;;8.30;5.17;;;;;;;-0.28;98.97;93911.88;5003704;28;20211;-87
2021/12/08 02:55:43;;;;;;;7.03;4.60;;;;;;;-0.28;99.31;93920.31;5003737;28;20570;-86
2021/12/08 02:58:13;;;;;;;7.50;4.70;;;;;;;-0.29;99.35;93916.16;5016453;28;20182;-86
2021/12/08 03:00:47;;;;;;;6.73;4.97;;;;;;;-0.24;99.36;93917.56;5002554;28;20225;-87
2021/12/08 03:03:20;;;;;;;8.80;5.93;;;;;;;-0.17;99.05;93926.34;4991706;28;20190;-86
2021/12/08 03:05:46;;;;;;;8.37;4.57;;;;;;;-0.24;99.05;93917.56;4991437;28;20190;-86
2021/12/08 03:08:16;;;;;;;7.10;5.50;;;;;;;-0.21;99.16;93920.66;5013725;28;20186;-86
2021/12/08 03:10:46;;;;;;;8.07;5.33;;;;;;;-0.29;99.24;93917.91;5001417;28;20197;-85
2021/12/08 03:13:15;;;;;;;8.63;5.00;;;;;;;-0.21;99.84;93920.66;5011051;28;20193;-86
2021/12/08 03:15:41;;;;;;;6.77;5.47;;;;;;;-0.29;99.41;93917.91;5000695;28;20275;-85
2021/12/08 03:18:10;;;;;;;8.67;5.77;;;;;;;-0.28;100.00;93922.88;5003364;28;20236;-86
2021/12/08 03:20:39;;;;;;;6.93;5.80;;;;;;;-0.30;99.71;93922.19;5008572;28;20207;-86
2021/12/08 03:23:13;;;;;;;11.80;5.93;;;;;;;-0.30;100.00;93934.94;4996431;28;20696;-85
2021/12/08 03:25:42;;;;;;;7.30;6.07;;;;;;;-0.26;100.00;93929.63;5000807;28;20240;-86
2021/12/08 03:28:16;;;;;;;9.30;6.00;;;;;;;-0.29;100.00;93943.41;5004207;28;20622;-85
2021/12/08 03:31:00;;;;;;;7.27;6.10;;;;;;;-0.26;100.00;93922.78;4988227;28;20189;-86
2021/12/08 03:33:26;;;;;;;8.07;6.53;;;;;;;-0.25;100.00;93926.94;5001605;28;20214;-86
2021/12/08 03:35:55;;;;;;;8.70;6.07;;;;;;;-0.30;100.00;93927.28;4990862;28;20187;-86
2021/12/08 03:38:21;;;;;;;9.67;6.23;;;;;;;-0.26;100.00;93932.19;5003757;28;20649;-86
2021/12/08 03:40:48;;;;;;;9.40;6.43;;;;;;;-0.16;100.00;93938.16;5003094;28;20205;-86
2021/12/08 03:43:14;;;;;;;7.63;6.37;;;;;;;-0.15;99.96;93937.22;4999711;28;20219;-86
2021/12/08 03:45:44;;;;;;;8.40;6.80;;;;;;;-0.28;100.00;93930.53;5005667;28;20219;-86
2021/12/08 03:48:19;;;;;;;10.37;6.07;;;;;;;-0.24;100.00;93933.66;5015903;28;20196;-86
2021/12/08 03:50:45;;;;;;;9.10;6.47;;;;;;;-0.21;100.00;93923.22;5017634;28;20182;-86
2021/12/08 03:53:13;;;;;;;9.40;6.43;;;;;;;-0.25;100.00;93937.16;5019399;28;20201;-86
2021/12/08 03:55:43;;;;;;;8.97;6.70;;;;;;;-0.22;100.00;93944.56;5019295;28;20182;-87
2021/12/08 03:58:10;;;;;;;11.80;7.30;;;;;;;-0.21;100.00;93950.47;5000040;28;20663;-86
2021/12/08 04:00:38;;;;;;;9.60;7.40;;;;;;;-0.23;100.00;93937.03;5016510;28;20202;-86
2021/12/08 04:03:05;;;;;;;11.93;6.87;;;;;;;-0.25;100.00;93944.00;5033509;28;20214;-87
2021/12/08 04:05:40;;;;;;;10.43;7.70;;;;;;;-0.17;100.00;93936.53;5021930;28;20171;-88
2021/12/08 04:08:15;;;;;;;11.80;7.90;;;;;;;-0.18;100.00;93934.91;5027773;28;20182;-86
2021/12/08 04:10:42;;;;;;;11.30;8.17;;;;;;;-0.17;100.00;93942.47;5004759;28;20178;-87
2021/12/08 04:13:07;;;;;;;9.93;7.13;;;;;;;-0.19;100.00;93940.94;5004221;28;20182;-86
2021/12/08 04:15:33;;;;;;;11.00;8.27;;;;;;;-0.13;100.00;93935.34;4986443;28;20205;-86
2021/12/08 04:17:58;;;;;;;12.30;7.97;;;;;;;-0.10;100.00;93935.91;4995539;28;20212;-86
2021/12/08 04:20:32;;;;;;;10.27;8.17;;;;;;;-0.07;100.00;93934.88;4999047;28;20205;-86
2021/12/08 04:22:59;;;;;;;13.03;8.40;;;;;;;-0.11;100.00;93941.94;4999269;28;20673;-86
2021/12/08 04:25:29;;;;;;;9.47;7.53;;;;;;;-0.07;100.00;93947.63;5011111;28;20185;-86
2021/12/08 04:27:58;;;;;;;12.57;8.77;;;;;;;-0.01;100.00;93947.94;4993225;28;20190;-86
2021/12/08 04:30:31;;;;;;;11.53;7.47;;;;;;;-0.10;100.00;93942.75;4983376;28;20265;-85
2021/12/08 04:32:56;;;;;;;8.97;7.27;;;;;;;-0.01;100.00;93953.03;5001641;28;20186;-85
2021/12/08 04:35:23;;;;;;;11.33;8.23;;;;;;;0.02;100.00;93949.44;5002138;28;20202;-85
2021/12/08 04:37:53;;;;;;;11.50;8.80;;;;;;;0.03;100.00;93955.34;5015585;28;20179;-86
2021/12/08 04:40:42;;;;;;;10.30;7.67;;;;;;;0.07;100.00;93952.41;5005184;28;20202;-85
2021/12/08 04:43:18;;;;;;;12.93;8.87;;;;;;;0.02;100.00;93957.09;4989530;28;20175;-86
2021/12/08 04:46:01;;;;;;;13.10;8.80;;;;;;;0.09;100.00;93954.84;4989813;28;20568;-86
2021/12/08 04:48:51;;;;;;;12.73;8.77;;;;;;;0.07;100.00;93943.97;5008601;28;20182;-84
2021/12/08 04:51:36;;;;;;;12.70;8.77;;;;;;;0.09;100.00;93944.63;5004490;28;20175;-84
2021/12/08 05:00:17;;;;;;;13.00;8.90;;;;;;;0.13;100.00;93944.28;5020760;28;20201;-85
2021/12/08 05:02:49;;;;;;;13.80;9.30;;;;;;;0.14;100.00;93963.75;5021035;28;20548;-84
2021/12/08 05:08:19;;;;;;;12.23;8.73;;;;;;;0.09;100.00;93955.69;4982363;28;20193;-85
2021/12/08 05:10:53;;;;;;;15.13;9.53;;;;;;;0.14;100.00;93960.41;4980524;28;20175;-85
2021/12/08 05:13:19;;;;;;;12.47;9.40;;;;;;;0.10;100.00;93957.31;4977451;28;20722;-85
2021/12/08 05:15:52;;;;;;;11.47;9.47;;;;;;;0.09;100.00;93958.25;4979103;28;20269;-84
2021/12/08 05:18:23;;;;;;;15.10;9.40;;;;;;;0.11;100.00;93953.81;4975511;28;20217;-84
2021/12/08 05:21:04;;;;;;;13.93;9.60;;;;;;;0.23;100.00;93952.00;4977916;28;20224;-85
2021/12/08 05:23:39;;;;;;;13.83;9.50;;;;;;;0.13;100.00;93948.56;4969536;28;20292;-84
2021/12/08 05:26:08;;;;;;;10.77;8.20;;;;;;;0.23;100.00;93929.03;4974832;28;20801;-85
2021/12/08 05:28:34;;;;;;;12.43;8.50;;;;;;;0.23;100.00;93942.59;4963624;28;20175;-86
2021/12/08 05:31:27;;;;;;;10.83;8.43;;;;;;;0.24;100.00;93946.75;4964787;28;20195;-87
2021/12/08 05:33:54;;;;;;;12.67;8.63;;;;;;;0.24;100.00;93953.63;4944945;28;20625;-86
2021/12/08 05:36:20;;;;;;;13.23;8.27;;;;;;;0.27;100.00;93943.97;4970360;28;20205;-87
2021/12/08 05:38:46;;;;;;;11.10;7.97;;;;;;;0.34;100.00;93948.56;4979658;28;20245;-85
2021/12/08 05:41:19;;;;;;;11.37;8.10;;;;;;;0.37;100.00;93936.38;4978736;28;20693;-87
2021/12/08 05:43:45;;;;;;;11.37;7.97;;;;;;;0.40;100.00;93925.09;4986972;28;20230;-86
2021/12/08 05:46:12;;;;;;;13.93;8.33;;;;;;;0.34;100.00;93908.53;5002039;28;20188;-86
2021/12/08 05:48:38;;;;;;;10.53;8.13;;;;;;;0.35;100.00;93899.13;5002107;28;20224;-85
2021/12/08 05:51:08;;;;;;;10.33;7.80;;;;;;;0.33;100.00;93901.81;5001712;28;20178;-85
2021/12/08 05:53:35;;;;;;;12.30;8.17;;;;;;;0.39;100.00;93905.59;5002083;28;20221;-88
2021/12/08 05:56:01;;;;;;;10.60;7.87;;;;;;;0.37;100.00;93899.81;5002857;28;20182;-85
2021/12/08 05:58:27;;;;;;;12.47;8.00;;;;;;;0.39;100.00;93910.72;5002088;28;20194;-85
2021/12/08 06:00:58;;;;;;;12.80;8.80;;;;;;;0.39;100.00;93910.72;5002295;28;20206;-84
2021/12/08 06:03:23;;;;;;;11.73;8.87;;;;;;;0.34;100.00;93912.81;5001276;28;20242;-84
2021/12/08 06:05:50;;;;;;;11.10;8.70;;;;;;;0.41;100.00;93913.94;5003075;28;20182;-85
2021/12/08 06:08:17;;;;;;;14.03;9.90;;;;;;;0.35;100.00;93924.66;5019791;28;20182;-84
2021/12/08 06:10:44;;;;;;;15.13;9.87;;;;;;;0.42;100.00;93941.09;5002035;28;20713;-86
2021/12/08 06:13:12;;;;;;;13.10;10.20;;;;;;;0.36;100.00;93931.41;5001613;28;20178;-86
2021/12/08 06:15:38;;;;;;;12.97;10.33;;;;;;;0.37;100.00;93905.75;5003001;28;20724;-85
2021/12/08 06:18:04;;;;;;;13.50;10.30;;;;;;;0.39;100.00;93905.59;5017905;28;20194;-87
2021/12/08 06:20:30;;;;;;;14.93;11.67;;;;;;;0.37;100.00;93920.25;5001860;28;20719;-87
2021/12/08 06:22:57;;;;;;;17.27;10.83;;;;;;;0.33;100.00;93927.34;5002606;28;20190;-87
2021/12/08 06:25:23;;;;;;;17.13;12.23;;;;;;;0.31;100.00;93925.84;5003193;28;20528;-85
2021/12/08 06:27:49;;;;;;;15.53;10.90;;;;;;;0.32;100.00;93922.34;5001693;28;20182;-84
2021/12/08 06:30:19;;;;;;;15.33;10.90;;;;;;;0.30;100.00;93907.16;5001133;28;20653;-85
2021/12/08 06:32:45;;;;;;;14.40;10.67;;;;;;;0.24;100.00;93897.44;5016946;28;20638;-86
2021/12/08 06:35:16;;;;;;;14.13;10.00;;;;;;;0.25;100.00;93907.53;5013536;28;20264;-85
2021/12/08 06:37:42;;;;;;;14.47;9.90;;;;;;;0.27;100.00;93926.13;5013857;28;20179;-85
2021/12/08 06:40:20;;;;;;;14.73;10.17;;;;;;;0.31;100.00;93926.66;5014627;28;20229;-83
2021/12/08 06:42:50;;;;;;;16.37;10.93;;;;;;;0.34;100.00;93923.03;5013659;28;20222;-84
2021/12/08 06:45:20;;;;;;;14.27;10.90;;;;;;;0.26;100.00;93942.34;5016003;28;20199;-84
2021/12/08 06:47:47;;;;;;;16.87;11.67;;;;;;;0.28;100.00;93944.78;5017473;28;20186;-84
2021/12/08 06:50:17;;;;;;;15.80;11.73;;;;;;;0.35;100.00;93950.19;4996634;28;20175;-85
2021/12/08 06:52:42;;;;;;;19.33;11.97;;;;;;;0.28;100.00;93947.34;4980721;28;20186;-85
2021/12/08 06:55:16;;;;;;;16.87;11.67;;;;;;;0.30;100.00;93944.66;4980580;28;20206;-84
2021/12/08 06:57:51;;;;;;;17.23;12.13;;;;;;;0.28;100.00;93950.72;4981387;28;20188;-85
2021/12/08 07:00:37;;;;;;;16.93;11.83;;;;;;;0.27;100.00;93950.84;4997486;28;20206;-85
2021/12/08 07:06:06;;;;;;;16.83;10.93;;;;;;;0.33;100.00;93962.28;5000194;28;20317;-84
2021/12/08 07:08:38;;;;;;;15.50;10.77;;;;;;;0.35;100.00;93979.09;4983135;28;20209;-85
2021/12/08 07:11:05;;;;;;;15.93;10.73;;;;;;;0.36;100.00;93988.38;4980604;28;20270;-84
2021/12/08 07:13:31;;;;;;;16.47;11.27;;;;;;;0.42;100.00;93976.84;4980604;28;20213;-84
2021/12/08 07:16:11;;;;;;;14.87;10.30;;;;;;;0.43;100.00;93973.34;4984511;28;20179;-84
2021/12/08 07:18:52;;;;;;;14.20;10.53;;;;;;;0.38;100.00;93976.31;5001325;28;20190;-83
2021/12/08 07:21:19;;;;;;;15.77;10.47;;;;;;;0.49;100.00;93967.75;4985531;28;20214;-85
2021/12/08 07:23:52;;;;;;;13.67;10.17;;;;;;;0.36;100.00;93967.16;5004261;28;20211;-86
2021/12/08 07:26:26;;;;;;;14.77;10.03;;;;;;;0.44;100.00;93952.00;5019817;28;20181;-86
2021/12/08 07:28:54;;;;;;;15.20;9.43;;;;;;;0.47;100.00;93949.19;5026356;28;20200;-85
2021/12/08 07:31:24;;;;;;;12.90;9.67;;;;;;;0.49;100.00;93937.09;5004430;28;20179;-84
2021/12/08 07:33:50;;;;;;;12.80;9.50;;;;;;;0.53;100.00;93941.00;5017364;28;20222;-86
2021/12/08 07:36:17;;;;;;;16.47;9.93;;;;;;;0.51;100.00;93943.69;5001082;28;20630;-84
2021/12/08 07:38:51;;;;;;;13.77;9.67;;;;;;;0.53;100.00;93941.84;4984974;28;20224;-84
2021/12/08 07:41:32;;;;;;;14.87;9.77;;;;;;;0.54;100.00;93924.78;5000940;28;20213;-85
2021/12/08 07:44:04;;;;;;;13.73;10.17;;;;;;;0.49;100.00;93926.91;4984917;28;20191;-84
2021/12/08 07:46:33;;;;;;;12.73;9.33;;;;;;;0.61;100.00;93930.16;5001252;28;20184;-85
2021/12/08 07:49:04;;;;;;;14.63;9.80;;;;;;;0.60;100.00;93928.56;4994418;28;20207;-84
2021/12/08 07:51:36;;;;;;;15.33;11.03;;;;;;;0.64;100.00;93933.28;5025672;28;20194;-87
2021/12/08 07:54:03;;;;;;;15.03;10.70;;;;;;;0.61;100.00;93936.09;5027192;28;20206;-86
2021/12/08 07:56:47;;;;;;;15.10;10.37;;;;;;;0.54;100.00;93950.31;5003664;28;20202;-88
2021/12/08 07:59:15;;;;;;;16.90;10.87;;;;;;;0.59;100.00;93965.25;5029075;28;20204;-87
2021/12/08 08:01:49;;;;;;;15.50;11.03;;;;;;;0.60;100.00;93944.69;5016116;28;20195;-88
2021/12/08 08:04:19;;;;;;;14.20;11.47;;;;;;;0.60;100.00;93931.91;4995419;28;20225;-87
2021/12/08 08:06:51;;;;;;;16.87;11.03;;;;;;;0.64;100.00;93938.41;5010970;28;20175;-88
2021/12/08 08:09:25;;;;;;;14.33;10.03;;;;;;;0.63;100.00;93944.47;5004380;28;20189;-85
2021/12/08 08:11:58;;;;;;;14.53;9.67;;;;;;;0.63;100.00;93954.69;5006857;28;20200;-85
2021/12/08 08:14:36;;;;;;;12.60;9.10;;;;;;;0.72;100.00;93961.56;4992255;28;20214;-86
2021/12/08 08:17:04;;;;;;;13.40;10.63;;;;;;;0.66;100.00;93968.94;5038392;28;20189;-87
2021/12/08 08:20:17;;;;;;;;;;;;;;;;;;;;;
2021/12/08 08:57:12;;;;;;;10.43;8.10;;;;;;;0.94;100.00;93958.03;5017322;28;20762;-84
2021/12/08 08:59:56;;;;;;;11.97;8.33;;;;;;;0.96;100.00;93956.16;5019360;28;20739;-86
2021/12/08 09:11:35;;;;;;;15.43;8.80;;;;;;;1.10;100.00;93985.69;5089124;23;20708;-84
2021/12/08 09:41:05;;;;;;;10.90;8.73;;;;;;;1.36;100.00;94004.75;3041354;23;20239;-86
2021/12/08 09:47:30;;;;;;;10.50;8.47;;;;;;;1.40;100.00;94001.00;4915894;29;20210;-84
2021/12/08 09:50:02;;;;;;;10.33;8.03;;;;;;;1.45;100.00;93997.25;4884059;29;20210;-84
2021/12/08 09:52:30;;;;;;;9.73;7.70;;;;;;;1.49;100.00;93999.41;4885465;29;20190;-85
2021/12/08 09:55:16;;;;;;;;;;;;;;;;;;;;;
2021/12/08 09:57:51;;;;;;;10.13;7.40;;;;;;;1.55;100.00;93988.66;4914875;29;20205;-83
2021/12/08 10:00:32;;;;;;;8.67;6.93;;;;;;;1.59;100.00;93989.19;4885442;29;20344;-84
2021/12/08 10:03:00;;;;;;;8.87;6.83;;;;;;;1.51;100.00;93986.50;4915988;29;20285;-85
2021/12/08 10:09:08;;;;;;;10.07;7.60;;;;;;;1.57;100.00;93980.84;4894688;29;20306;-86
2021/12/08 10:11:34;;;;;;;9.50;7.43;;;;;;;1.58;100.00;93982.44;4881962;29;20226;-81
2021/12/08 10:14:12;;;;;;;9.67;7.73;;;;;;;1.64;100.00;93984.50;4897095;29;20691;-85
2021/12/08 10:16:45;;;;;;;9.93;7.83;;;;;;;1.54;100.00;93978.56;4880111;29;20198;-86
2021/12/08 10:22:44;;;;;;;9.83;7.33;;;;;;;1.64;100.00;93987.06;4877347;29;20261;-86
2021/12/08 10:25:23;;;;;;;10.63;8.37;;;;;;;1.67;100.00;93981.66;4918973;29;20224;-86
2021/12/08 10:28:38;;;;;;;7.63;6.23;;;;;;;1.72;100.00;93976.16;4916289;29;20201;-87
2021/12/08 10:37:59;;;;;;;10.10;7.83;;;;;;;1.73;100.00;93965.78;4952753;28;20696;-85
2021/12/08 10:40:32;;;;;;;9.87;8.07;;;;;;;1.79;100.00;93965.25;4990494;28;20243;-86
2021/12/08 10:43:20;;;;;;;10.30;8.20;;;;;;;1.79;99.91;93967.81;4982086;28;20191;-83
2021/12/08 10:46:10;;;;;;;10.60;8.07;;;;;;;1.77;100.00;93959.47;4985025;28;20187;-83
2021/12/08 10:48:59;;;;;;;;;;;;;;;;;;;;;
2021/12/08 10:54:50;;;;;;;8.27;6.33;;;;;;;1.92;100.00;93960.69;4916742;28;20231;-87
2021/12/08 10:57:35;;;;;;;10.37;6.47;;;;;;;1.87;100.00;93957.72;5014569;28;20175;-87
2021/12/08 11:00:32;;;;;;;;;;;;;;;;;;;;;
2021/12/08 11:03:43;;;;;;;7.23;6.27;;;;;;;1.96;100.00;93946.69;4993942;28;20176;-88
2021/12/08 11:06:09;;;;;;;6.50;5.63;;;;;;;2.00;100.00;93939.53;4978143;28;20258;-85
2021/12/08 11:09:23;;;;;;;8.40;5.70;;;;;;;2.05;100.00;93932.25;4964460;28;20544;-86
2021/12/08 11:11:49;;;;;;;5.97;5.20;;;;;;;2.09;100.00;93922.56;4975799;28;20199;-86
2021/12/08 11:14:14;;;;;;;5.77;4.90;;;;;;;2.12;99.94;93920.53;4992778;28;20212;-86
2021/12/08 11:16:44;;;;;;;7.67;4.77;;;;;;;2.27;99.54;93921.72;4974704;28;20203;-86
2021/12/08 11:19:32;;;;;;;7.00;5.33;;;;;;;2.30;99.69;93919.81;4982539;28;20177;-86
2021/12/08 11:22:03;;;;;;;7.60;6.10;;;;;;;2.44;99.54;93927.09;4965531;28;20191;-86
2021/12/08 11:24:44;;;;;;;11.07;7.37;;;;;;;2.44;99.41;93932.22;4981983;28;20207;-85
2021/12/08 11:27:09;;;;;;;8.27;6.13;;;;;;;2.45;99.09;93937.19;4994202;28;20285;-86
2021/12/08 11:29:38;;;;;;;8.57;6.40;;;;;;;2.40;99.35;93938.56;4984632;28;20734;-86
2021/12/08 11:32:08;;;;;;;12.27;8.87;;;;;;;2.29;99.97;93931.81;4969932;28;20191;-85
2021/12/08 11:34:37;;;;;;;20.97;17.60;;;;;;;2.28;100.00;93930.22;4992709;28;20261;-87
2021/12/08 11:37:05;;;;;;;35.27;23.57;;;;;;;2.28;99.88;93931.00;4990660;28;20267;-86
2021/12/08 11:39:40;;;;;;;8.50;6.93;;;;;;;2.30;99.95;93943.72;4961857;28;20183;-87
2021/12/08 11:42:16;;;;;;;6.07;5.13;;;;;;;2.30;99.81;93932.63;4979151;28;20183;-87
2021/12/08 11:44:47;;;;;;;6.17;4.53;;;;;;;2.34;99.89;93934.78;4980807;28;20787;-87
2021/12/08 11:47:15;;;;;;;5.20;4.70;;;;;;;2.47;99.64;93942.16;4998109;28;20179;-86
2021/12/08 11:49:44;;;;;;;4.30;3.77;;;;;;;2.45;99.79;93944.88;5007171;28;20203;-86
2021/12/08 11:52:13;;;;;;;3.97;3.40;;;;;;;2.38;98.96;93933.56;4982537;28;20188;-86
2021/12/08 11:54:38;;;;;;;3.87;2.97;;;;;;;2.35;99.01;93930.47;5010448;28;20222;-87
2021/12/08 11:57:10;;;;;;;5.57;3.30;;;;;;;2.44;98.63;93924.53;4995833;28;20741;-85
2021/12/08 12:00:00;;;;;;;4.15;3.10;;;;;;;2.51;98.83;93931.53;5000456;28;20248;-86
2021/12/08 12:02:52;;;;;;;;;;;;;;;;;;;;;
2021/12/08 12:05:27;;;;;;;7.70;3.00;;;;;;;2.60;98.47;93935.00;4980576;28;20209;-86
2021/12/08 12:07:53;;;;;;;4.20;3.20;;;;;;;2.57;98.64;93929.38;4995308;28;20701;-85
2021/12/08 12:10:31;;;;;;;5.40;3.57;;;;;;;2.62;98.30;93930.53;4991199;28;20175;-86
2021/12/08 12:13:44;;;;;;;3.50;3.10;;;;;;;2.69;98.04;93923.94;4982474;28;20215;-86
2021/12/08 12:16:11;;;;;;;4.10;2.53;;;;;;;2.72;97.79;93920.25;4985570;28;20192;-84
2021/12/08 12:18:36;;;;;;;3.23;2.40;;;;;;;2.66;97.53;93918.28;4965455;28;20187;-84
2021/12/08 12:21:19;;;;;;;2.67;2.20;;;;;;;2.69;98.23;93918.81;5003452;28;20202;-85
2021/12/08 12:24:24;;;;;;;4.33;1.90;;;;;;;2.68;97.91;93924.88;4997687;28;20306;-86
2021/12/08 12:27:22;;;;;;;4.70;2.20;;;;;;;2.68;98.14;93916.38;4997159;28;20187;-85
2021/12/08 12:30:12;;;;;;;3.73;2.30;;;;;;;2.72;97.82;93915.94;5007908;28;20226;-84
2021/12/08 12:32:44;;;;;;;5.30;2.80;;;;;;;2.69;98.10;93925.69;5019390;28;20183;-81
2021/12/08 12:35:16;;;;;;;4.00;3.07;;;;;;;2.69;97.64;93915.44;4993845;28;20242;-84
2021/12/08 12:37:43;;;;;;;8.03;3.70;;;;;;;2.68;97.98;93913.81;4971078;28;20626;-82
2021/12/08 12:40:20;;;;;;;17.80;5.60;;;;;;;2.71;97.74;93913.53;4998407;28;20204;-85
2021/12/08 12:42:59;;;;;;;22.27;8.47;;;;;;;2.67;97.59;93910.44;4972192;28;20179;-84
2021/12/08 12:45:26;;;;;;;15.40;6.50;;;;;;;2.64;98.01;93905.59;4970575;28;20214;-85
2021/12/08 12:48:13;;;;;;;11.30;5.63;;;;;;;2.66;98.08;93905.47;4988166;28;20200;-84
2021/12/08 12:50:58;;;;;;;14.50;5.53;;;;;;;2.67;98.20;93900.19;5015614;28;20689;-82
2021/12/08 12:53:32;;;;;;;13.73;5.93;;;;;;;2.72;98.00;93897.19;4994380;28;20729;-85
2021/12/08 12:55:58;;;;;;;8.27;4.80;;;;;;;2.68;98.57;93898.44;4994095;28;20188;-84
2021/12/08 12:58:23;;;;;;;8.57;6.27;;;;;;;2.70;98.45;93897.34;4964431;28;20180;-86
2021/12/08 13:00:52;;;;;;;8.50;6.10;;;;;;;2.75;98.18;93891.81;4982221;28;20218;-82
2021/12/08 13:03:41;;;;;;;10.87;7.70;;;;;;;2.78;98.49;93883.81;4984873;28;20189;-86
2021/12/08 13:06:09;;;;;;;10.50;7.30;;;;;;;2.82;98.25;93883.38;4998361;28;20680;-85
2021/12/08 13:08:36;;;;;;;6.10;4.67;;;;;;;2.84;98.61;93886.63;4979426;28;20256;-86
2021/12/08 13:11:40;;;;;;;6.33;4.20;;;;;;;2.89;98.26;93883.63;4977116;28;20302;-85
2021/12/08 13:14:18;;;;;;;4.67;3.17;;;;;;;2.90;98.20;93887.00;5010234;28;20541;-85
2021/12/08 13:16:44;;;;;;;4.03;3.03;;;;;;;2.89;97.80;93875.94;4977830;28;20315;-85
2021/12/08 13:19:09;;;;;;;3.70;3.07;;;;;;;2.92;98.28;93878.25;5012779;28;20246;-86
2021/12/08 13:21:43;;;;;;;8.20;5.27;;;;;;;2.92;97.84;93867.19;4990908;28;20208;-84
2021/12/08 13:24:31;;;;;;;29.60;17.03;;;;;;;2.97;97.89;93865.78;4993963;28;20215;-86
2021/12/08 13:27:06;;;;;;;31.00;15.90;;;;;;;2.88;97.41;93861.50;4995366;28;20263;-85
2021/12/08 13:29:34;;;;;;;28.33;15.63;;;;;;;2.83;97.57;93858.59;4995184;28;20270;-85
2021/12/08 13:32:11;;;;;;;21.53;13.23;;;;;;;2.84;97.17;93855.88;4962504;28;20648;-86
2021/12/08 13:34:42;;;;;;;44.80;23.53;;;;;;;2.80;96.71;93862.22;4985846;28;20206;-85
2021/12/08 13:37:23;;;;;;;52.13;28.70;;;;;;;2.80;97.17;93861.41;4976192;28;20188;-86
2021/12/08 13:39:50;;;;;;;54.53;32.60;;;;;;;2.78;96.99;93864.13;4971125;28;20181;-86
2021/12/08 13:42:29;;;;;;;77.90;44.93;;;;;;;2.78;97.27;93858.19;4961501;28;20210;-84
2021/12/08 13:45:07;;;;;;;39.23;26.40;;;;;;;2.79;96.84;93867.50;4963848;28;20664;-84
2021/12/08 13:47:39;;;;;;;164.27;89.67;;;;;;;2.79;97.11;93877.75;4977962;28;20208;-84
2021/12/08 13:50:06;;;;;;;72.10;42.30;;;;;;;2.74;97.26;93887.59;4997448;28;20187;-85
2021/12/08 13:52:37;;;;;;;33.93;17.83;;;;;;;2.70;97.29;93884.53;4994656;28;20191;-83
2021/12/08 13:55:08;;;;;;;22.97;14.30;;;;;;;2.72;97.56;93887.75;4978528;28;20701;-86
2021/12/08 13:57:40;;;;;;;18.97;10.03;;;;;;;2.71;97.26;93898.16;4995335;28;20623;-83
2021/12/08 14:00:16;;;;;;;16.63;10.23;;;;;;;2.67;97.37;93894.25;4997001;28;20207;-86
2021/12/08 14:02:46;;;;;;;11.20;6.50;;;;;;;2.66;97.50;93906.28;4990710;28;20187;-86